Etusivu
METAR-TAF:

METAR-TAF

Lentoasemat :

Olney-Noble Airport

Olney-Noble, Illinois, Yhdysvallat

Leveyspiiri: 38-43-19N, Pituuspiiri: 088-10-35W, korkeus merenpinnasta: 147 m

Tämänhetkinen sää

Tämä raportti tehtiin 26 minuuttia sitten, kello 04.15 UTC
Tuuli 6 kn pohjoisesta
Lämpötila 8°C
Kosteus 93%
Ilmanpaine 1020 hPa
Näkyvyys: 16.1 km
Hajonneita pilviä 900 ft:n korkeudessa
Pilvistä 1300 ft:n korkeudessa

METAR: KOLY 050415Z AUTO 35006KT 10SM BKN009 OVC013 08/07 A3011 RMK AO2 T00760071

Aika: 23:41 (04:41 UTC)


TAF: puuttuu

Säähavainnot ja -ennusteet yli 4000 lentoasemalta (METAR- ja TAF-raportit).

Käytössä olevat sääasemat on merkitty karttaan keltaisilla ja punaisilla pisteillä.

Aseta hiiri pisteen päälle nähdäksesi sääaseman nimen.

Klikkaa sitten nähdäksesi säähavainnot ja -ennusteet.

Kartan vaihtaminen: klikkaa mustalla rastilla varustettuja vihreitä pisteitä, niin voit zoomata sisään; viivalla varustettua vihreää pistettä, niin voit zoomata ulos tai vihreitä nuolia, niin pääset viereisille kartoille.


METAR-TAF: